Time;durP1;ratioP1;P1;durP2;ratioP2;P2;SDS_P1;SDS_P2;PMS_P1;PMS_P2;Temp;Humidity;BMP_temperature;BMP_pressure;BME280_temperature;BME280_humidity;BME280_pressure;Samples;Min_cycle;Max_cycle;Signal;HPM_P1;HPM_P2
2022/12/05 00:00:17;;;;;;;16.03;12.17;;;4.60;99.90;;;;;;5120277;28;20179;-42
2022/12/05 00:02:43;;;;;;;17.97;12.37;;;4.60;99.90;;;;;;5119147;28;20892;-41
2022/12/05 00:05:10;;;;;;;16.63;11.93;;;4.50;99.90;;;;;;5120244;28;20469;-41
2022/12/05 00:07:36;;;;;;;14.80;11.67;;;4.60;1.00;;;;;;5120056;28;20263;-42
2022/12/05 00:10:03;;;;;;;16.07;11.70;;;4.50;1.00;;;;;;5121300;28;20557;-41
2022/12/05 00:12:29;;;;;;;19.47;14.40;;;4.50;1.00;;;;;;5103263;28;20178;-42
2022/12/05 00:14:54;;;;;;;16.93;12.20;;;4.60;1.00;;;;;;5120438;28;20516;-42
2022/12/05 00:17:20;;;;;;;20.23;12.70;;;4.60;1.00;;;;;;5103181;28;20186;-42
2022/12/05 00:19:46;;;;;;;19.40;13.57;;;4.50;99.90;;;;;;5102270;28;20180;-40
2022/12/05 00:22:11;;;;;;;18.10;12.17;;;4.50;99.90;;;;;;5120324;28;20477;-44
2022/12/05 00:24:38;;;;;;;20.90;15.30;;;4.50;99.90;;;;;;5120150;28;20216;-40
2022/12/05 00:27:04;;;;;;;16.53;11.63;;;4.50;99.90;;;;;;5102012;28;20541;-40
2022/12/05 00:29:29;;;;;;;15.23;11.60;;;4.50;99.90;;;;;;5102465;28;20417;-43
2022/12/05 00:31:55;;;;;;;14.13;11.00;;;4.50;99.90;;;;;;5120533;28;20470;-41
2022/12/05 00:34:20;;;;;;;19.60;13.20;;;4.50;1.00;;;;;;5102330;28;20477;-43
2022/12/05 00:36:46;;;;;;;19.10;12.50;;;4.50;1.00;;;;;;5120784;28;20266;-41
2022/12/05 00:39:15;;;;;;;17.00;13.20;;;4.50;1.00;;;;;;5119993;28;20194;-41
2022/12/05 00:41:41;;;;;;;20.10;13.20;;;4.50;1.00;;;;;;5120003;28;20564;-45
2022/12/05 00:44:07;;;;;;;18.53;12.47;;;4.50;1.00;;;;;;5118426;28;20425;-41
2022/12/05 00:46:34;;;;;;;17.47;12.47;;;4.50;1.00;;;;;;5119452;28;20463;-40
2022/12/05 00:49:00;;;;;;;15.63;11.67;;;4.50;1.00;;;;;;5119566;28;20437;-40
2022/12/05 00:51:31;;;;;;;17.37;12.27;;;4.50;1.00;;;;;;5119542;28;20398;-42
2022/12/05 00:53:59;;;;;;;14.73;10.40;;;4.50;1.00;;;;;;5120006;28;20482;-41
2022/12/05 00:56:26;;;;;;;14.93;11.00;;;4.50;1.00;;;;;;5119861;28;20409;-40
2022/12/05 00:58:54;;;;;;;16.70;11.70;;;4.40;1.00;;;;;;5119435;28;20536;-41
2022/12/05 01:01:26;;;;;;;17.30;10.00;;;4.40;1.00;;;;;;5119920;28;20413;-40
2022/12/05 01:03:53;;;;;;;14.07;10.63;;;4.50;1.00;;;;;;5119586;28;20433;-41
2022/12/05 01:06:19;;;;;;;16.03;11.17;;;4.40;1.00;;;;;;5119502;28;20449;-41
2022/12/05 01:08:46;;;;;;;15.60;10.53;;;4.40;1.00;;;;;;5100803;28;20453;-42
2022/12/05 01:11:15;;;;;;;15.60;11.57;;;4.40;1.00;;;;;;5119032;28;20883;-42
2022/12/05 01:13:41;;;;;;;16.20;10.47;;;4.50;1.00;;;;;;5101243;28;20191;-43
2022/12/05 01:16:16;;;;;;;14.40;10.50;;;4.50;1.00;;;;;;5119677;28;20414;-40
2022/12/05 01:18:42;;;;;;;12.43;9.53;;;4.50;1.00;;;;;;5119344;28;20417;-40
2022/12/05 01:21:08;;;;;;;14.60;10.70;;;4.50;1.00;;;;;;5101111;28;20417;-42
2022/12/05 01:23:34;;;;;;;17.50;12.80;;;4.50;1.00;;;;;;5119944;28;20201;-43
2022/12/05 01:25:59;;;;;;;16.37;11.77;;;4.50;1.00;;;;;;5119300;28;20755;-42
2022/12/05 01:28:25;;;;;;;14.13;10.63;;;4.50;1.00;;;;;;5101553;28;20207;-42
2022/12/05 01:30:51;;;;;;;16.23;11.30;;;4.50;1.00;;;;;;5119018;28;20473;-44
2022/12/05 01:33:17;;;;;;;15.03;10.53;;;4.50;1.00;;;;;;5118835;28;20188;-42
2022/12/05 01:35:43;;;;;;;16.80;10.73;;;4.50;1.00;;;;;;5119368;28;20191;-43
2022/12/05 01:38:12;;;;;;;18.17;12.00;;;4.50;1.00;;;;;;5118497;28;20428;-42
2022/12/05 01:40:38;;;;;;;14.73;10.70;;;4.50;1.00;;;;;;5100881;28;20833;-41
2022/12/05 01:43:13;;;;;;;17.37;10.17;;;4.60;1.00;;;;;;5117552;28;20528;-41
2022/12/05 01:45:41;;;;;;;15.33;11.03;;;4.50;1.00;;;;;;5083583;28;20206;-42
2022/12/05 01:48:11;;;;;;;15.80;11.50;;;4.60;1.00;;;;;;5117343;28;20437;-42
2022/12/05 01:50:37;;;;;;;18.43;12.90;;;4.60;1.00;;;;;;5099342;28;20916;-40
2022/12/05 01:53:03;;;;;;;14.90;10.93;;;4.60;1.00;;;;;;5117340;28;20418;-42
2022/12/05 01:55:29;;;;;;;15.77;11.40;;;4.60;1.00;;;;;;5099566;28;20417;-41
2022/12/05 01:57:55;;;;;;;19.80;12.77;;;4.60;1.00;;;;;;5117227;28;20842;-43
2022/12/05 02:00:21;;;;;;;16.40;11.13;;;4.60;1.00;;;;;;5117425;28;20180;-42
2022/12/05 02:02:56;;;;;;;20.30;12.70;;;4.60;1.00;;;;;;5118690;28;20429;-42
2022/12/05 02:05:33;;;;;;;18.47;11.50;;;4.60;1.00;;;;;;5118034;28;20890;-41
2022/12/05 02:08:02;;;;;;;20.30;12.87;;;4.60;1.00;;;;;;5118760;28;20414;-42
2022/12/05 02:10:30;;;;;;;22.73;12.97;;;4.60;1.00;;;;;;5104188;28;20813;-41
2022/12/05 02:13:01;;;;;;;18.83;12.70;;;4.60;1.00;;;;;;5117432;28;20422;-43
2022/12/05 02:15:44;;;;;;;18.30;11.53;;;4.60;1.00;;;;;;5118262;28;20854;-42
2022/12/05 02:18:28;;;;;;;19.00;12.13;;;4.60;1.00;;;;;;5117274;28;20413;-42
2022/12/05 02:21:22;;;;;;;18.53;12.03;;;4.60;1.90;;;;;;5116687;28;20430;-43
2022/12/05 02:24:25;;;;;;;20.33;12.80;;;4.60;31.70;;;;;;5118181;28;20416;-43
2022/12/05 02:27:09;;;;;;;18.03;13.10;;;4.60;37.10;;;;;;5101797;28;20448;-42
2022/12/05 02:29:57;;;;;;;20.70;12.83;;;4.60;41.80;;;;;;5118489;28;20449;-43
2022/12/05 02:32:37;;;;;;;19.80;12.80;;;4.60;89.10;;;;;;5117833;28;20525;-42
2022/12/05 02:35:30;;;;;;;20.43;13.67;;;4.60;99.90;;;;;;5115224;28;20504;-42
2022/12/05 02:38:22;;;;;;;20.20;12.50;;;4.60;99.90;;;;;;5117063;28;20550;-42
2022/12/05 02:41:02;;;;;;;20.20;13.40;;;4.60;99.90;;;;;;5116000;28;20456;-43
2022/12/05 02:43:37;;;;;;;24.23;14.10;;;4.60;99.90;;;;;;5116052;28;20405;-43
2022/12/05 02:46:13;;;;;;;22.10;15.00;;;4.60;99.90;;;;;;5116646;28;20565;-41
2022/12/05 02:48:41;;;;;;;21.73;14.27;;;4.60;99.90;;;;;;5117156;28;20748;-45
2022/12/05 02:51:08;;;;;;;22.20;14.30;;;4.60;99.90;;;;;;5117831;28;20482;-41
2022/12/05 02:53:38;;;;;;;19.30;12.67;;;4.60;99.90;;;;;;5117207;28;20476;-42
2022/12/05 02:56:05;;;;;;;20.53;13.67;;;4.60;99.90;;;;;;5117272;28;20429;-42
2022/12/05 02:58:33;;;;;;;18.53;13.93;;;4.60;1.00;;;;;;5116667;28;20532;-41
2022/12/05 03:00:59;;;;;;;22.00;13.47;;;4.60;1.00;;;;;;5116273;28;20417;-42
2022/12/05 03:03:25;;;;;;;20.70;13.63;;;4.60;1.00;;;;;;5116373;28;20436;-42
2022/12/05 03:06:14;;;;;;;20.90;14.20;;;4.60;1.00;;;;;;5114593;28;20211;-42
2022/12/05 03:08:50;;;;;;;19.10;12.90;;;4.60;1.00;;;;;;5119898;28;20428;-44
2022/12/05 03:11:16;;;;;;;20.40;13.27;;;4.70;1.00;;;;;;5119255;28;20456;-42
2022/12/05 03:13:50;;;;;;;18.70;13.20;;;4.70;1.00;;;;;;5120623;28;20413;-43
2022/12/05 03:16:37;;;;;;;19.80;13.67;;;4.70;1.00;;;;;;5120736;28;20168;-41
2022/12/05 03:19:11;;;;;;;18.50;12.10;;;4.70;1.00;;;;;;5103044;28;20731;-42
2022/12/05 03:21:49;;;;;;;21.20;14.50;;;4.70;1.00;;;;;;5120691;28;20739;-41
2022/12/05 03:24:15;;;;;;;20.30;13.80;;;4.70;1.00;;;;;;5120125;28;20417;-42
2022/12/05 03:27:08;;;;;;;19.63;13.53;;;4.70;1.00;;;;;;5121309;28;20705;-42
2022/12/05 03:29:43;;;;;;;19.03;13.43;;;4.70;1.00;;;;;;5121664;28;20416;-42
2022/12/05 03:32:38;;;;;;;17.33;12.77;;;4.70;1.00;;;;;;5120706;28;20420;-42
2022/12/05 03:35:21;;;;;;;17.80;12.50;;;4.70;1.00;;;;;;5121674;28;20405;-42
2022/12/05 03:38:16;;;;;;;18.03;12.90;;;4.80;1.00;;;;;;5121185;28;20445;-42
2022/12/05 03:41:00;;;;;;;18.23;12.43;;;4.80;1.00;;;;;;5110634;28;20444;-43
2022/12/05 03:43:28;;;;;;;17.70;12.23;;;4.80;1.00;;;;;;5121006;28;20776;-43
2022/12/05 03:45:59;;;;;;;15.67;11.57;;;4.80;1.00;;;;;;5120640;28;20742;-41
2022/12/05 03:48:32;;;;;;;18.97;12.20;;;4.80;1.00;;;;;;5119243;28;20410;-42
2022/12/05 03:50:58;;;;;;;18.40;11.57;;;4.80;1.00;;;;;;5121229;28;20583;-42
2022/12/05 03:53:28;;;;;;;16.63;12.10;;;4.80;1.00;;;;;;5119166;28;20453;-44
2022/12/05 03:56:11;;;;;;;15.00;10.47;;;4.80;1.00;;;;;;5121344;28;20452;-42
2022/12/05 03:59:13;;;;;;;17.10;12.90;;;4.80;1.00;;;;;;5119472;28;20695;-42
2022/12/05 04:01:39;;;;;;;16.30;10.70;;;4.90;1.00;;;;;;5117828;28;20439;-40
2022/12/05 04:04:14;;;;;;;15.87;11.37;;;4.90;1.00;;;;;;5118036;28;20418;-43
2022/12/05 04:06:43;;;;;;;19.40;14.23;;;4.90;1.00;;;;;;5120149;28;20457;-42
2022/12/05 04:09:11;;;;;;;16.27;11.77;;;4.90;1.00;;;;;;5119469;28;20517;-42
2022/12/05 04:11:42;;;;;;;18.87;12.33;;;4.90;1.00;;;;;;5119187;28;20956;-41
2022/12/05 04:14:10;;;;;;;21.53;13.60;;;4.90;1.00;;;;;;5119313;28;20451;-43
2022/12/05 04:22:40;;;;;;;13.73;9.87;;;4.90;1.00;;;;;;5058153;28;20440;-41
2022/12/05 04:27:55;;;;;;;14.47;11.00;;;4.90;1.00;;;;;;5119058;28;20835;-40
2022/12/05 04:30:23;;;;;;;16.83;11.83;;;4.90;1.00;;;;;;5120314;28;20414;-41
2022/12/05 04:33:05;;;;;;;15.20;11.07;;;4.80;1.00;;;;;;5119795;28;20187;-42
2022/12/05 04:35:41;;;;;;;14.90;10.53;;;4.90;1.00;;;;;;5120391;28;20406;-42
2022/12/05 04:38:14;;;;;;;14.13;10.63;;;4.80;1.00;;;;;;5119520;28;20473;-43
2022/12/05 04:40:53;;;;;;;13.60;10.30;;;4.80;1.00;;;;;;5118161;28;20397;-42
2022/12/05 04:43:19;;;;;;;16.50;11.03;;;4.80;1.00;;;;;;5119713;28;20412;-40
2022/12/05 04:45:46;;;;;;;14.27;10.80;;;4.80;1.00;;;;;;5120712;28;20453;-42
2022/12/05 04:48:14;;;;;;;17.20;11.23;;;4.80;1.00;;;;;;5119791;28;20432;-42
2022/12/05 04:50:40;;;;;;;14.43;10.63;;;4.80;1.00;;;;;;5117987;28;20406;-41
2022/12/05 04:53:11;;;;;;;13.10;10.10;;;4.80;1.00;;;;;;5118775;28;20418;-41
2022/12/05 04:55:41;;;;;;;14.20;9.20;;;4.80;1.00;;;;;;5119053;28;20435;-43
2022/12/05 04:58:14;;;;;;;12.70;9.33;;;4.70;1.00;;;;;;5118085;28;21025;-41
2022/12/05 05:01:01;;;;;;;14.67;9.90;;;4.70;1.00;;;;;;5119228;28;20417;-42
2022/12/05 05:03:32;;;;;;;12.63;10.43;;;4.70;1.00;;;;;;5119293;28;20497;-41
2022/12/05 05:05:58;;;;;;;13.97;10.47;;;4.70;1.00;;;;;;5118661;28;20556;-45
2022/12/05 05:08:27;;;;;;;14.10;10.83;;;4.70;1.00;;;;;;5117631;28;20520;-41
2022/12/05 05:11:13;;;;;;;12.30;9.70;;;4.70;1.00;;;;;;5120035;28;20215;-44
2022/12/05 05:13:39;;;;;;;13.27;9.23;;;4.70;1.00;;;;;;5117777;28;20398;-42
2022/12/05 05:16:05;;;;;;;12.90;10.10;;;4.70;1.00;;;;;;5117213;28;20429;-42
2022/12/05 05:18:30;;;;;;;13.60;9.67;;;4.70;1.00;;;;;;5117105;28;20622;-41
2022/12/05 05:20:56;;;;;;;12.77;9.77;;;4.70;1.00;;;;;;5115357;28;20453;-44
2022/12/05 05:23:22;;;;;;;11.60;9.20;;;4.80;1.00;;;;;;5115975;28;20304;-43
2022/12/05 05:25:54;;;;;;;11.93;10.00;;;4.80;1.00;;;;;;5114216;28;20303;-41
2022/12/05 05:28:20;;;;;;;12.20;9.10;;;4.80;1.00;;;;;;5095214;28;20175;-42
2022/12/05 05:30:46;;;;;;;12.87;9.10;;;4.80;1.00;;;;;;5115007;28;20398;-41
2022/12/05 05:33:12;;;;;;;13.17;9.40;;;4.80;1.00;;;;;;5115020;28;20421;-41
2022/12/05 05:35:37;;;;;;;13.07;9.43;;;4.80;1.00;;;;;;5097805;28;20186;-41
2022/12/05 05:38:04;;;;;;;12.13;9.57;;;4.80;1.00;;;;;;5115869;28;20604;-43
2022/12/05 05:40:30;;;;;;;11.80;9.20;;;4.90;1.00;;;;;;5096652;28;20171;-44
2022/12/05 05:42:55;;;;;;;12.60;9.23;;;4.90;1.00;;;;;;5117385;28;20414;-43
2022/12/05 05:45:21;;;;;;;11.73;9.10;;;4.90;1.00;;;;;;5116436;28;20303;-42
2022/12/05 05:47:48;;;;;;;11.37;8.37;;;4.90;1.00;;;;;;5116096;28;20317;-43
2022/12/05 05:50:15;;;;;;;10.40;8.40;;;4.90;1.00;;;;;;5082580;28;20168;-43
2022/12/05 05:52:41;;;;;;;10.77;7.83;;;4.90;1.00;;;;;;5114763;28;20426;-42
2022/12/05 05:55:07;;;;;;;12.00;8.30;;;5.00;1.00;;;;;;5113259;28;20410;-42
2022/12/05 05:57:36;;;;;;;9.37;7.70;;;5.00;1.00;;;;;;5113956;28;20183;-43
2022/12/05 06:00:05;;;;;;;11.87;8.10;;;4.90;1.00;;;;;;5114362;28;20413;-45
2022/12/05 06:02:32;;;;;;;10.70;7.83;;;5.00;1.00;;;;;;5112544;28;20745;-42
2022/12/05 06:04:58;;;;;;;10.80;9.13;;;5.00;1.00;;;;;;5112774;28;20450;-43
2022/12/05 06:07:24;;;;;;;10.20;8.93;;;5.00;1.00;;;;;;5093708;28;20434;-43
2022/12/05 06:10:15;;;;;;;10.10;8.23;;;5.00;1.00;;;;;;5112208;28;20999;-42
2022/12/05 06:12:41;;;;;;;11.43;9.53;;;5.00;1.00;;;;;;5111472;28;20465;-43
2022/12/05 06:15:07;;;;;;;11.53;9.37;;;5.00;1.00;;;;;;5111007;28;20719;-40
2022/12/05 06:17:33;;;;;;;10.23;7.83;;;5.00;1.00;;;;;;5110184;28;20569;-42
2022/12/05 06:19:58;;;;;;;10.87;8.40;;;5.00;1.00;;;;;;5110123;28;20494;-41
2022/12/05 06:22:24;;;;;;;10.43;8.93;;;5.00;1.00;;;;;;5110015;28;20199;-40
2022/12/05 06:24:49;;;;;;;11.20;9.33;;;5.00;1.00;;;;;;5111339;28;20324;-40
2022/12/05 06:27:15;;;;;;;11.43;9.47;;;5.00;1.00;;;;;;5107689;28;20253;-41
2022/12/05 06:29:41;;;;;;;9.40;7.83;;;5.10;1.00;;;;;;5105500;28;20287;-40
2022/12/05 06:32:06;;;;;;;10.87;9.40;;;5.10;1.00;;;;;;5107497;28;20214;-41
2022/12/05 06:34:34;;;;;;;12.97;9.73;;;5.00;1.00;;;;;;5110022;28;20168;-40
2022/12/05 06:36:59;;;;;;;9.30;7.90;;;5.00;1.00;;;;;;5103135;28;20249;-41
2022/12/05 06:39:25;;;;;;;11.17;8.60;;;5.00;1.00;;;;;;5089069;28;20414;-41
2022/12/05 06:41:51;;;;;;;12.23;8.77;;;5.00;1.00;;;;;;5089563;28;20176;-41
2022/12/05 06:44:16;;;;;;;10.00;8.50;;;5.00;1.00;;;;;;5091036;28;20173;-41
2022/12/05 06:46:42;;;;;;;12.60;9.23;;;5.00;1.00;;;;;;5087611;28;20214;-41
2022/12/05 06:49:09;;;;;;;10.23;8.70;;;5.10;1.00;;;;;;5088876;28;20172;-41
2022/12/05 06:51:35;;;;;;;10.87;8.90;;;5.00;1.00;;;;;;5090228;28;20173;-42
2022/12/05 06:54:01;;;;;;;11.60;8.67;;;5.00;1.00;;;;;;5091055;28;20410;-41
2022/12/05 06:56:27;;;;;;;10.33;8.53;;;5.10;1.00;;;;;;5088032;28;20486;-42
2022/12/05 06:58:54;;;;;;;12.10;9.20;;;5.10;1.00;;;;;;5089905;28;20185;-42
2022/12/05 07:01:40;;;;;;;10.57;9.40;;;5.10;1.00;;;;;;5091076;28;20422;-42
2022/12/05 07:04:20;;;;;;;12.20;9.80;;;5.10;1.00;;;;;;5089359;28;20482;-41
2022/12/05 07:06:48;;;;;;;10.60;9.50;;;5.10;1.00;;;;;;5089325;28;20465;-41
2022/12/05 07:09:13;;;;;;;13.57;10.57;;;5.10;1.00;;;;;;5090646;28;20460;-41
2022/12/05 07:11:39;;;;;;;11.90;9.70;;;5.10;1.00;;;;;;5087860;28;20766;-42
2022/12/05 07:14:05;;;;;;;12.80;10.27;;;5.10;1.00;;;;;;5088823;28;20268;-42
2022/12/05 07:16:31;;;;;;;10.77;9.13;;;5.20;1.00;;;;;;5090031;28;20432;-44
2022/12/05 07:18:57;;;;;;;12.70;9.00;;;5.20;1.00;;;;;;5089806;28;20438;-41
2022/12/05 07:21:23;;;;;;;9.50;8.43;;;5.20;1.00;;;;;;5090246;28;20422;-41
2022/12/05 07:23:49;;;;;;;9.77;8.77;;;5.20;1.00;;;;;;5089774;28;20968;-43
2022/12/05 07:26:17;;;;;;;10.47;9.00;;;5.30;1.00;;;;;;5089934;28;20297;-43
2022/12/05 07:28:43;;;;;;;11.13;9.23;;;5.30;99.90;;;;;;5090232;28;20585;-43
2022/12/05 07:31:11;;;;;;;13.03;9.80;;;5.40;99.90;;;;;;5088629;28;20415;-42
2022/12/05 07:33:37;;;;;;;12.30;9.13;;;5.40;99.90;;;;;;5091288;28;20449;-41
2022/12/05 07:36:09;;;;;;;10.80;9.10;;;5.50;99.90;;;;;;5094359;28;20437;-41
2022/12/05 07:38:35;;;;;;;11.20;9.70;;;5.60;99.90;;;;;;5093771;28;20461;-41
2022/12/05 07:41:05;;;;;;;10.20;9.03;;;5.70;99.90;;;;;;5092939;28;20841;-41
2022/12/05 07:43:31;;;;;;;11.23;8.97;;;5.70;99.90;;;;;;5093461;28;20674;-42
2022/12/05 07:46:01;;;;;;;9.27;8.03;;;5.80;99.90;;;;;;5095249;28;20768;-43
2022/12/05 07:48:27;;;;;;;9.53;7.30;;;5.90;41.40;;;;;;5093977;28;20176;-42
2022/12/05 07:50:53;;;;;;;9.30;8.40;;;5.90;1.00;;;;;;5093368;28;20422;-44
2022/12/05 07:53:18;;;;;;;9.20;8.20;;;6.00;1.00;;;;;;5095091;28;20364;-43
2022/12/05 07:55:44;;;;;;;9.33;8.23;;;6.10;1.00;;;;;;5096118;28;20182;-43
2022/12/05 07:58:09;;;;;;;8.90;8.00;;;6.10;1.00;;;;;;5095316;28;20271;-41
2022/12/05 08:00:35;;;;;;;11.20;7.97;;;6.10;1.00;;;;;;5095224;28;20574;-41
2022/12/05 08:03:02;;;;;;;9.57;8.07;;;6.20;1.00;;;;;;5096051;28;20177;-42
2022/12/05 08:05:28;;;;;;;8.63;7.73;;;6.20;1.00;;;;;;5096060;28;20214;-44
2022/12/05 08:07:53;;;;;;;8.40;7.50;;;6.20;99.90;;;;;;5095909;28;20410;-42
2022/12/05 08:10:19;;;;;;;8.83;7.90;;;6.20;99.90;;;;;;5095409;28;20169;-42
2022/12/05 08:12:45;;;;;;;9.40;8.43;;;6.30;99.90;;;;;;5097234;28;20234;-44
2022/12/05 08:15:10;;;;;;;9.10;8.20;;;6.30;99.90;;;;;;5095407;28;20335;-42
2022/12/05 08:17:36;;;;;;;9.50;8.17;;;6.40;99.90;;;;;;5095271;28;20180;-43
2022/12/05 08:20:02;;;;;;;9.63;8.50;;;6.40;99.90;;;;;;5096076;28;20188;-41
2022/12/05 08:22:28;;;;;;;11.03;8.90;;;6.40;99.90;;;;;;5095238;28;20233;-42
2022/12/05 08:24:54;;;;;;;9.07;8.13;;;6.50;99.90;;;;;;5094509;28;20461;-41
2022/12/05 08:27:21;;;;;;;10.23;7.83;;;6.50;63.50;;;;;;5093690;28;20175;-42
2022/12/05 08:29:46;;;;;;;9.00;8.07;;;6.50;34.10;;;;;;5096084;28;20253;-44
2022/12/05 08:32:12;;;;;;;9.63;8.23;;;6.50;1.00;;;;;;5093292;28;20426;-42
2022/12/05 08:34:38;;;;;;;9.00;7.77;;;6.50;1.00;;;;;;5093360;28;20641;-42
2022/12/05 08:37:03;;;;;;;8.53;7.10;;;6.60;1.00;;;;;;5096894;28;20185;-42
2022/12/05 08:39:30;;;;;;;9.63;7.90;;;6.60;1.00;;;;;;5095657;28;20168;-41
2022/12/05 08:41:56;;;;;;;9.90;8.10;;;6.60;1.00;;;;;;5095866;28;20169;-41
2022/12/05 08:44:21;;;;;;;9.73;7.93;;;6.60;1.00;;;;;;5094141;28;20406;-43
2022/12/05 08:46:49;;;;;;;4.90;3.60;;;6.70;1.00;;;;;;5094430;28;20211;-46
2022/12/05 08:49:15;;;;;;;7.83;5.47;;;7.30;99.90;;;;;;5095683;28;20570;-46
2022/12/05 08:51:42;;;;;;;6.57;5.23;;;8.70;1.00;;;;;;5094850;28;20678;-45
2022/12/05 08:54:08;;;;;;;6.53;5.83;;;9.90;1.00;;;;;;5093152;28;20418;-45
2022/12/05 08:56:34;;;;;;;6.30;4.47;;;10.70;1.00;;;;;;5091790;28;20860;-49
2022/12/05 08:59:01;;;;;;;7.20;4.80;;;11.30;1.00;;;;;;5092388;28;20426;-48
2022/12/05 09:01:30;;;;;;;9.47;4.50;;;12.10;99.90;;;;;;5093973;28;20181;-46
2022/12/05 09:03:56;;;;;;;5.43;4.70;;;13.10;1.00;;;;;;5094067;28;20833;-50
2022/12/05 09:06:23;;;;;;;5.27;4.77;;;14.00;1.00;;;;;;5095797;28;20462;-48
2022/12/05 09:08:53;;;;;;;7.07;5.23;;;14.60;13.80;;;;;;5095849;28;20530;-42
2022/12/05 09:11:24;;;;;;;5.60;5.00;;;15.00;99.90;;;;;;5096641;28;20454;-42
2022/12/05 09:13:51;;;;;;;7.23;6.53;;;14.70;1.00;;;;;;5092456;28;20426;-42
2022/12/05 09:16:23;;;;;;;6.13;5.53;;;14.10;99.90;;;;;;5116266;28;20417;-44
2022/12/05 09:18:49;;;;;;;6.80;6.20;;;13.50;99.90;;;;;;5098095;28;20421;-43
2022/12/05 09:21:17;;;;;;;7.13;6.43;;;12.80;99.90;;;;;;5116283;28;20433;-43
2022/12/05 09:23:43;;;;;;;6.40;5.67;;;12.20;99.90;;;;;;5117666;28;20410;-42
2022/12/05 09:26:12;;;;;;;6.50;5.90;;;11.70;99.90;;;;;;5118463;28;20502;-42
2022/12/05 09:28:39;;;;;;;6.23;5.60;;;11.20;99.90;;;;;;5118401;28;20316;-41
2022/12/05 09:31:07;;;;;;;7.10;6.40;;;10.80;99.90;;;;;;5116051;28;20413;-44
2022/12/05 09:33:34;;;;;;;6.80;6.20;;;10.50;99.90;;;;;;5116637;28;20406;-41
2022/12/05 09:36:11;;;;;;;7.50;6.80;;;10.20;99.90;;;;;;5116079;28;20574;-43
2022/12/05 09:38:37;;;;;;;7.17;6.47;;;9.90;1.00;;;;;;5116962;28;20451;-42
2022/12/05 09:41:12;;;;;;;7.60;6.80;;;9.70;1.00;;;;;;5116978;28;20429;-44
2022/12/05 09:43:46;;;;;;;7.73;6.43;;;9.50;1.00;;;;;;5113791;28;20409;-41
2022/12/05 09:46:40;;;;;;;8.53;7.70;;;9.40;1.00;;;;;;5114160;28;20538;-42
2022/12/05 09:49:08;;;;;;;8.10;6.40;;;9.20;1.00;;;;;;5114520;28;20532;-42
2022/12/05 09:51:37;;;;;;;7.33;6.50;;;9.10;28.10;;;;;;5112453;28;20578;-42
2022/12/05 09:54:03;;;;;;;8.13;6.70;;;9.00;99.90;;;;;;5112876;28;20410;-43
2022/12/05 09:56:29;;;;;;;6.70;6.10;;;9.00;99.90;;;;;;5114709;28;20516;-42
2022/12/05 09:58:57;;;;;;;5.93;5.10;;;8.90;99.90;;;;;;5116479;28;20180;-43
2022/12/05 10:01:44;;;;;;;6.63;5.80;;;8.80;99.90;;;;;;5114291;28;20417;-41
2022/12/05 10:04:28;;;;;;;6.10;5.23;;;8.80;99.90;;;;;;5115568;28;20499;-42
2022/12/05 10:07:17;;;;;;;6.90;5.30;;;8.70;99.90;;;;;;5115969;28;20456;-42
2022/12/05 10:10:21;;;;;;;6.20;5.50;;;8.70;99.90;;;;;;5115607;28;20435;-43
2022/12/05 10:13:19;;;;;;;6.37;5.67;;;8.70;99.90;;;;;;5114090;28;20494;-41
2022/12/05 10:15:51;;;;;;;6.33;5.73;;;8.70;99.90;;;;;;5065113;28;20422;-42
2022/12/05 10:18:38;;;;;;;8.07;5.53;;;8.70;99.90;;;;;;5117430;28;20422;-41
2022/12/05 10:21:21;;;;;;;7.30;6.20;;;8.80;99.90;;;;;;5113645;28;20435;-42
2022/12/05 10:23:59;;;;;;;6.80;6.07;;;8.80;99.90;;;;;;5116062;28;20486;-44
2022/12/05 10:26:53;;;;;;;6.70;6.00;;;8.90;99.90;;;;;;5115714;28;20476;-42
2022/12/05 10:29:36;;;;;;;6.90;6.23;;;9.00;99.90;;;;;;5114495;28;20433;-43
2022/12/05 10:32:23;;;;;;;7.60;5.27;;;9.10;99.90;;;;;;5115862;28;20417;-42
2022/12/05 10:34:49;;;;;;;5.77;5.27;;;9.20;25.20;;;;;;5115563;28;20414;-42
2022/12/05 10:37:21;;;;;;;6.73;5.23;;;9.30;1.00;;;;;;5114637;28;20417;-42
2022/12/05 10:39:48;;;;;;;4.80;4.30;;;9.30;1.00;;;;;;5116184;28;20409;-42
2022/12/05 10:42:20;;;;;;;5.13;4.37;;;9.40;1.00;;;;;;5114869;28;20425;-42
2022/12/05 10:44:47;;;;;;;4.53;4.10;;;9.50;1.00;;;;;;5112671;28;20912;-43
2022/12/05 10:47:12;;;;;;;4.73;4.23;;;9.50;1.00;;;;;;5113954;28;20711;-42
2022/12/05 10:49:38;;;;;;;4.47;4.03;;;9.50;1.00;;;;;;5114717;28;20413;-44
2022/12/05 10:52:05;;;;;;;4.50;4.10;;;9.50;1.00;;;;;;5113706;28;20168;-43
2022/12/05 10:54:34;;;;;;;5.17;3.97;;;9.50;1.00;;;;;;5112893;28;20414;-41
2022/12/05 10:57:00;;;;;;;4.37;3.97;;;9.50;1.00;;;;;;5115693;28;20425;-44
2022/12/05 10:59:44;;;;;;;4.20;3.80;;;9.40;1.00;;;;;;5115137;28;20422;-42
2022/12/05 11:02:23;;;;;;;5.00;3.53;;;9.40;1.00;;;;;;5113515;28;20529;-43
2022/12/05 11:04:49;;;;;;;4.17;3.77;;;9.40;1.00;;;;;;5113591;28;20466;-42
2022/12/05 11:07:31;;;;;;;4.00;3.47;;;9.40;1.00;;;;;;5114952;28;20532;-42
2022/12/05 11:10:01;;;;;;;4.43;3.37;;;9.40;1.00;;;;;;5114633;28;20433;-43
2022/12/05 11:12:38;;;;;;;4.30;3.83;;;9.40;1.00;;;;;;5114768;28;20875;-42
2022/12/05 11:15:18;;;;;;;4.87;4.37;;;9.40;99.90;;;;;;5111996;28;20409;-44
2022/12/05 11:17:44;;;;;;;4.47;3.63;;;9.40;99.90;;;;;;5114898;28;20811;-42
2022/12/05 11:20:18;;;;;;;4.63;4.03;;;9.60;99.90;;;;;;5114713;28;20418;-46
2022/12/05 11:22:49;;;;;;;4.23;3.43;;;10.20;1.00;;;;;;5113127;28;20534;-39
2022/12/05 11:25:32;;;;;;;3.87;3.50;;;11.20;99.90;;;;;;5115902;28;20479;-40
2022/12/05 11:28:00;;;;;;;4.10;3.70;;;12.70;43.00;;;;;;5116067;28;20508;-40
2022/12/05 11:30:28;;;;;;;4.00;3.60;;;14.30;1.00;;;;;;5118541;28;20819;-40
2022/12/05 11:33:15;;;;;;;3.97;3.57;;;15.60;1.00;;;;;;5117278;28;20429;-42
2022/12/05 11:35:41;;;;;;;4.00;3.20;;;16.20;1.00;;;;;;5119013;28;20397;-40
2022/12/05 11:38:08;;;;;;;3.57;3.27;;;16.20;1.00;;;;;;5118172;28;20425;-41
2022/12/05 11:40:47;;;;;;;3.43;3.13;;;16.00;1.00;;;;;;5115575;28;20266;-41
2022/12/05 11:43:27;;;;;;;3.40;3.10;;;15.70;1.00;;;;;;5116817;28;20862;-39
2022/12/05 11:45:56;;;;;;;3.30;3.00;;;15.40;1.00;;;;;;5116050;28;20463;-40
2022/12/05 11:48:41;;;;;;;3.80;3.10;;;15.10;1.00;;;;;;5118295;28;20405;-40
2022/12/05 11:51:23;;;;;;;3.40;3.10;;;14.80;1.00;;;;;;5117953;28;20428;-40
2022/12/05 11:54:16;;;;;;;3.20;2.90;;;14.60;1.00;;;;;;5117823;28;20748;-40
2022/12/05 11:56:53;;;;;;;4.00;3.60;;;14.60;1.00;;;;;;5118430;28;20509;-41
2022/12/05 11:59:37;;;;;;;3.40;3.00;;;14.60;1.00;;;;;;5116986;28;20421;-41
2022/12/05 12:02:34;;;;;;;3.90;3.60;;;14.50;1.00;;;;;;5117898;28;20409;-42
2022/12/05 12:05:13;;;;;;;4.03;3.73;;;14.40;1.00;;;;;;5116486;28;20548;-40
2022/12/05 12:08:03;;;;;;;4.40;3.87;;;14.40;1.00;;;;;;5112472;28;20681;-42
2022/12/05 12:10:40;;;;;;;4.77;3.90;;;14.40;1.00;;;;;;5106570;28;20493;-41
2022/12/05 12:13:17;;;;;;;3.70;3.10;;;14.40;1.00;;;;;;5116966;28;20448;-42
2022/12/05 12:15:51;;;;;;;3.77;3.37;;;14.50;1.00;;;;;;5094757;28;20418;-41
2022/12/05 12:18:55;;;;;;;4.70;4.20;;;14.80;1.00;;;;;;5094091;28;20450;-40
2022/12/05 12:21:51;;;;;;;6.00;3.03;;;15.00;1.00;;;;;;5094175;28;20760;-41
2022/12/05 12:24:49;;;;;;;3.80;3.50;;;15.70;1.00;;;;;;5094416;28;20408;-42
2022/12/05 12:27:28;;;;;;;3.37;3.07;;;16.30;1.00;;;;;;5089005;28;20870;-42
2022/12/05 12:30:06;;;;;;;3.37;3.07;;;16.80;1.00;;;;;;5090025;28;20407;-41
2022/12/05 12:32:51;;;;;;;6.00;4.00;;;16.90;1.00;;;;;;5092042;28;20421;-44
2022/12/05 12:35:23;;;;;;;3.53;3.23;;;16.60;1.00;;;;;;5094662;28;20820;-44
2022/12/05 12:38:17;;;;;;;3.50;3.20;;;16.40;1.00;;;;;;5092627;28;20701;-42
2022/12/05 12:41:03;;;;;;;4.40;4.00;;;16.00;1.00;;;;;;5092802;28;20849;-43
2022/12/05 12:43:40;;;;;;;4.50;4.00;;;15.60;1.00;;;;;;5092625;28;20685;-46
2022/12/05 12:46:18;;;;;;;4.50;3.80;;;15.20;1.00;;;;;;5095581;28;20493;-41
2022/12/05 12:49:12;;;;;;;4.70;3.87;;;15.00;1.00;;;;;;5096026;28;20413;-42
2022/12/05 12:52:00;;;;;;;5.23;4.10;;;14.70;1.00;;;;;;5096640;28;20419;-42
2022/12/05 12:54:50;;;;;;;4.33;3.80;;;14.40;1.00;;;;;;5094780;28;20454;-44
2022/12/05 12:57:25;;;;;;;4.33;3.93;;;14.10;1.00;;;;;;5096895;28;20815;-43
2022/12/05 13:00:08;;;;;;;4.60;4.20;;;13.90;1.00;;;;;;5094458;28;20414;-42
2022/12/05 13:02:52;;;;;;;3.90;3.50;;;13.80;1.00;;;;;;5094785;28;20513;-42
2022/12/05 13:05:31;;;;;;;2.80;1.90;;;13.70;1.00;;;;;;5094395;28;20664;-47
2022/12/05 13:08:10;;;;;;;3.60;2.40;;;14.20;1.00;;;;;;5094774;28;20434;-43
2022/12/05 13:10:42;;;;;;;4.07;2.90;;;14.60;1.00;;;;;;5094653;28;20712;-42
2022/12/05 13:13:20;;;;;;;4.23;3.53;;;14.70;1.00;;;;;;5095892;28;20414;-42
2022/12/05 13:15:51;;;;;;;4.80;3.60;;;14.70;1.00;;;;;;5095601;28;20858;-40
2022/12/05 13:18:19;;;;;;;5.53;3.20;;;14.50;1.00;;;;;;5096239;28;20825;-41
2022/12/05 13:20:48;;;;;;;3.80;3.50;;;14.30;1.00;;;;;;5096860;28;20407;-41
2022/12/05 13:23:17;;;;;;;3.63;3.33;;;14.30;1.00;;;;;;5095665;28;20516;-43
2022/12/05 13:25:44;;;;;;;4.10;3.70;;;14.30;1.00;;;;;;5096102;28;20964;-42